SBOSBO MAD / LEMD
Speedbird OnlineSpeedbird Online MAD / LEMD

Adolfo Suárez Madrid–Barajas Airport
01:30 3°C

Location Madrid, Spain
Latitude: 40.471926
Longitude: -3.56264
Web Airport Website | Wikipedia
Altitude 609 Meter / 1998 Feet
Distance 1,260 KM / 783 Miles
from London.
Time Zone UTC +1 hours (Europe/Madrid)
Codes IATA: MAD
ICAO: LEMD
Currency £1 equals EUR 1.14
Runways
RunwayLength (m)Surface
14L3500Asphalt
14R3988Asphalt
18L3500Asphalt
18R4179Asphalt
32L3988Asphalt
32R3500Asphalt
36L4179Asphalt
36R3500Asphalt
Radio
TypeDescriptionFrequency
APPMADRID APP127.5
ATIS DEPATIS Departure130.85
ATISATIS118.25
CLDDelivery East130.075
CLDDelivery West130.35
EMRFIRE122.975
GNDGND121.85
TWRTWR 36L118.07
TWRTWR 14R118.15
TWRTWR 36R118.67
TWRTWR 14L118.975
Live ATC
METAR LEMD 270000Z 35006KT CAVOK 03/M03 Q1017 NOSIG
TAF TAF LEMD 262300Z 2700/2806 02006KT CAVOK TX09/2714Z TN01/2707Z PROB40 TEMPO 2710/2718 01020G30KT
Weather As Of 27 Jan 2023 01:30
Description Clear sky
Wind 11 km/h from North (350°)
Cloud Cover 0%
Precipitation Rain: none, Snow: none
Sunrise 08:28
Sunset 18:25
Lounges Iberia Premium Lounge Dalí, Terminal 4
Iberia Premium Lounge Velazquez, Terminal 4S
Rotations During the last 90 days there were
407 flights from LHR
2 flights from LGW
406 flights to LHR



Support Speedbird Online

© 2017-2023 Speedbird Online